createdAt,value
2023-05-02T00:03:30.618Z,7.50
2023-05-02T00:08:33.044Z,8.73
2023-05-02T00:13:35.569Z,15.48
2023-05-02T00:18:38.015Z,10.85
2023-05-02T00:23:40.702Z,9.35
2023-05-02T00:28:43.301Z,10.63
2023-05-02T00:33:45.764Z,10.57
2023-05-02T00:38:48.182Z,10.43
2023-05-02T00:43:50.629Z,11.95
2023-05-02T00:48:53.418Z,11.48
2023-05-02T00:53:56.749Z,12.30
2023-05-02T00:58:59.940Z,12.65
2023-05-02T01:04:44.520Z,11.07
2023-05-02T01:10:33.649Z,11.55
2023-05-02T01:15:39.757Z,10.18
2023-05-02T01:20:47.165Z,13.13
2023-05-02T01:26:07.464Z,11.60
2023-05-02T01:31:11.764Z,12.65
2023-05-02T01:36:16.458Z,11.85
2023-05-02T01:41:21.126Z,12.27
2023-05-02T01:46:25.935Z,11.77
2023-05-02T01:51:33.346Z,10.68
2023-05-02T01:56:38.599Z,13.20
2023-05-02T02:01:43.988Z,15.05
2023-05-02T02:06:58.730Z,12.63
2023-05-02T02:12:26.759Z,12.38
2023-05-02T02:17:43.890Z,13.23
2023-05-02T02:22:47.905Z,13.50
2023-05-02T02:27:50.913Z,17.15
2023-05-02T02:32:53.915Z,12.90
2023-05-02T02:38:20.559Z,14.07
2023-05-02T02:43:54.576Z,17.17
2023-05-02T02:49:19.275Z,13.77
2023-05-02T02:54:27.080Z,11.95
2023-05-02T02:59:35.966Z,17.38
2023-05-02T03:04:45.267Z,16.13
2023-05-02T03:09:48.967Z,13.07
2023-05-02T03:14:51.649Z,20.08
2023-05-02T03:19:54.092Z,13.48
2023-05-02T03:24:56.494Z,19.30
2023-05-02T03:29:59.089Z,12.15
2023-05-02T03:35:01.842Z,15.80
2023-05-02T03:40:04.629Z,17.13
2023-05-02T03:45:10.772Z,13.48
2023-05-02T03:50:13.267Z,15.18
2023-05-02T03:55:15.687Z,14.30
2023-05-02T04:00:18.355Z,14.05
2023-05-02T04:05:20.997Z,15.43
2023-05-02T04:10:23.476Z,24.65
2023-05-02T04:15:25.969Z,16.30
2023-05-02T04:20:28.521Z,28.60
2023-05-02T04:25:31.254Z,18.27
2023-05-02T04:30:33.788Z,16.73
2023-05-02T04:35:36.174Z,24.60
2023-05-02T04:40:39.318Z,26.30
2023-05-02T04:45:41.841Z,21.25
2023-05-02T04:50:46.922Z,23.67
2023-05-02T04:55:49.515Z,24.92
2023-05-02T05:00:52.060Z,36.05
2023-05-02T05:05:55.077Z,21.75
2023-05-02T05:10:57.969Z,20.27
2023-05-02T05:16:00.561Z,20.17
2023-05-02T05:21:03.063Z,18.67
2023-05-02T05:26:18.486Z,16.20
2023-05-02T05:31:21.012Z,17.73
2023-05-02T05:36:23.734Z,18.02
2023-05-02T05:41:42.529Z,12.85
2023-05-02T06:10:35.676Z,9.75
2023-05-02T06:16:19.872Z,9.82
2023-05-02T06:21:42.380Z,9.98
2023-05-02T06:26:56.437Z,11.85
2023-05-02T06:32:00.630Z,12.30
2023-05-02T06:37:05.091Z,7.75
2023-05-02T06:42:08.553Z,6.28
2023-05-02T06:47:11.211Z,6.80
2023-05-02T06:52:13.459Z,7.20
2023-05-02T06:57:16.337Z,4.57
2023-05-02T07:02:18.643Z,7.30
2023-05-02T07:07:22.422Z,10.32
2023-05-02T07:12:24.899Z,5.80
2023-05-02T07:17:27.616Z,6.85
2023-05-02T07:22:29.784Z,7.60
2023-05-02T07:27:32.072Z,9.90
2023-05-02T07:32:34.400Z,9.00
2023-05-02T07:37:37.401Z,11.60
2023-05-02T07:42:41.676Z,6.90
2023-05-02T07:47:44.259Z,8.20
2023-05-02T07:52:46.632Z,8.00
2023-05-02T07:57:49.012Z,6.40
2023-05-02T08:02:51.450Z,5.35
2023-05-02T08:07:53.765Z,9.00
2023-05-02T08:12:56.023Z,12.13
2023-05-02T08:17:58.368Z,14.52
2023-05-02T08:23:00.797Z,9.63
2023-05-02T08:28:03.114Z,4.72
2023-05-02T08:33:05.352Z,8.13
2023-05-02T08:38:07.993Z,11.02
2023-05-02T08:43:11.383Z,14.77
2023-05-02T08:48:15.466Z,9.82
2023-05-02T08:53:18.067Z,15.13
2023-05-02T08:58:20.171Z,9.68
2023-05-02T09:03:23.942Z,14.10
2023-05-02T09:08:26.140Z,10.07
2023-05-02T09:13:28.758Z,10.52
2023-05-02T09:18:32.143Z,5.30
2023-05-02T09:23:37.947Z,7.78
2023-05-02T09:28:49.811Z,11.02
2023-05-02T09:33:52.067Z,12.50
2023-05-02T09:38:54.360Z,8.32
2023-05-02T09:43:57.886Z,8.07
2023-05-02T09:48:59.941Z,8.40
2023-05-02T09:54:01.957Z,6.47
2023-05-02T09:59:17.066Z,7.32
2023-05-02T10:04:19.927Z,7.25
2023-05-02T10:09:23.010Z,14.90
2023-05-02T10:14:29.685Z,9.50
2023-05-02T10:19:38.907Z,9.25
2023-05-02T10:29:43.279Z,13.88
2023-05-02T10:34:46.907Z,8.70
2023-05-02T10:39:49.089Z,5.70
2023-05-02T10:44:51.570Z,12.50
2023-05-02T10:49:57.491Z,11.15
2023-05-02T10:55:20.201Z,8.40
2023-05-02T11:00:22.706Z,6.80
2023-05-02T11:05:25.173Z,10.50
2023-05-02T11:10:27.974Z,6.47
2023-05-02T11:15:30.043Z,7.32
2023-05-02T11:20:32.744Z,11.75
2023-05-02T11:25:34.872Z,6.82
2023-05-02T11:30:37.898Z,8.02
2023-05-02T11:35:42.474Z,4.13
2023-05-02T11:40:57.139Z,5.55
2023-05-02T11:46:00.457Z,9.35
2023-05-02T11:51:04.090Z,5.25
2023-05-02T11:56:06.404Z,3.92
2023-05-02T12:01:15.200Z,7.75
2023-05-02T12:11:21.970Z,5.57
2023-05-02T12:16:30.070Z,7.15
2023-05-02T12:21:33.792Z,5.57
2023-05-02T12:26:35.891Z,7.63
2023-05-02T12:31:38.097Z,12.57
2023-05-02T12:36:44.706Z,11.13
2023-05-02T12:41:46.757Z,16.92
2023-05-02T12:46:58.949Z,8.60
2023-05-02T12:52:01.578Z,7.43
2023-05-02T12:57:05.019Z,4.22
2023-05-02T13:02:08.125Z,11.95
2023-05-02T13:07:11.396Z,5.75
2023-05-02T13:12:13.665Z,11.85
2023-05-02T13:17:16.249Z,9.18
2023-05-02T13:22:18.274Z,7.75
2023-05-02T13:27:20.288Z,9.60
2023-05-02T13:32:22.563Z,9.85
2023-05-02T13:37:24.586Z,7.35
2023-05-02T13:42:26.771Z,4.93
2023-05-02T13:47:28.885Z,12.35
2023-05-02T13:52:30.982Z,6.13
2023-05-02T13:57:33.052Z,7.53
2023-05-02T14:02:35.114Z,9.85
2023-05-02T14:07:37.187Z,10.00
2023-05-02T14:12:39.222Z,7.05
2023-05-02T14:17:41.289Z,11.30
2023-05-02T14:22:43.334Z,11.30
2023-05-02T14:27:45.307Z,12.30
2023-05-02T14:32:47.518Z,6.68
2023-05-02T14:37:49.664Z,9.73
2023-05-02T14:42:51.552Z,8.07
2023-05-02T14:47:53.636Z,10.65
2023-05-02T14:52:55.812Z,10.48
2023-05-02T14:57:58.794Z,8.98
2023-05-02T15:03:02.539Z,10.90
2023-05-02T15:08:06.388Z,11.15
2023-05-02T15:13:09.166Z,6.40
2023-05-02T15:18:11.140Z,9.93
2023-05-02T15:23:13.209Z,11.70
2023-05-02T15:28:15.223Z,8.30
2023-05-02T15:33:17.286Z,7.78
2023-05-02T15:38:19.243Z,13.00
2023-05-02T15:43:21.349Z,13.60
2023-05-02T15:48:23.945Z,9.93
2023-05-02T15:53:26.344Z,16.83
2023-05-02T15:58:28.503Z,11.55
2023-05-02T16:03:31.934Z,9.07
2023-05-02T16:08:34.035Z,10.20
2023-05-02T16:13:36.007Z,11.70
2023-05-02T16:18:38.036Z,12.00
2023-05-02T16:23:39.972Z,13.77
2023-05-02T16:28:42.070Z,16.15
2023-05-02T16:33:43.971Z,12.75
2023-05-02T16:38:46.632Z,14.52
2023-05-02T16:43:49.921Z,12.95
2023-05-02T16:48:52.036Z,18.75
2023-05-02T16:53:54.294Z,13.18
2023-05-02T16:58:56.390Z,13.18
2023-05-02T17:03:58.429Z,12.50
2023-05-02T17:09:00.420Z,13.23
2023-05-02T17:14:02.456Z,11.35
2023-05-02T17:19:04.529Z,12.60
2023-05-02T17:24:06.801Z,12.98
2023-05-02T17:29:08.892Z,12.00
2023-05-02T17:34:10.945Z,12.95
2023-05-02T17:39:13.944Z,7.53
2023-05-02T17:44:16.790Z,15.73
2023-05-02T17:49:18.729Z,18.75
2023-05-02T17:54:20.688Z,10.70
2023-05-02T17:59:23.250Z,15.13
2023-05-02T18:04:25.764Z,11.25
2023-05-02T18:09:27.755Z,14.75
2023-05-02T18:14:29.711Z,13.75
2023-05-02T18:19:31.694Z,11.02
2023-05-02T18:24:33.881Z,17.13
2023-05-02T18:29:36.769Z,12.73
2023-05-02T18:34:39.138Z,11.43
2023-05-02T18:39:41.224Z,12.18
2023-05-02T18:44:43.203Z,16.65
2023-05-02T18:49:45.186Z,14.43
2023-05-02T18:54:47.205Z,14.98
2023-05-02T18:59:49.243Z,12.73
2023-05-02T19:04:51.306Z,12.63
2023-05-02T19:09:53.273Z,9.55
2023-05-02T19:14:55.280Z,17.08
2023-05-02T19:19:58.327Z,10.70
2023-05-02T19:25:00.853Z,10.70
2023-05-02T19:30:04.534Z,9.93
2023-05-02T19:35:07.519Z,8.75
2023-05-02T19:40:11.220Z,12.60
2023-05-02T19:45:14.166Z,10.48
2023-05-02T19:50:16.870Z,13.93
2023-05-02T19:55:20.836Z,12.30
2023-05-02T20:00:22.987Z,11.25
2023-05-02T20:05:25.111Z,14.07
2023-05-02T20:10:27.274Z,12.43
2023-05-02T20:15:29.689Z,13.77
2023-05-02T20:20:31.795Z,10.85
2023-05-02T20:25:33.711Z,11.95
2023-05-02T20:30:35.947Z,14.13
2023-05-02T20:35:37.984Z,9.45
2023-05-02T20:40:41.094Z,13.73
2023-05-02T20:45:43.323Z,14.00
2023-05-02T20:50:53.381Z,12.98
2023-05-02T20:55:55.344Z,13.10
2023-05-02T21:00:57.492Z,9.23
2023-05-02T21:06:02.280Z,9.10
2023-05-02T21:11:13.452Z,13.63
2023-05-02T21:16:16.676Z,12.70
2023-05-02T21:21:18.866Z,9.88
2023-05-02T21:26:21.057Z,17.65
2023-05-02T21:31:23.164Z,12.27
2023-05-02T21:36:25.232Z,11.73
2023-05-02T21:41:27.264Z,11.70
2023-05-02T21:46:29.364Z,15.65
2023-05-02T21:51:32.081Z,10.27
2023-05-02T21:56:34.149Z,8.85
2023-05-02T22:01:39.301Z,13.80
2023-05-02T22:06:42.217Z,9.50
2023-05-02T22:11:44.322Z,9.20
2023-05-02T22:16:46.699Z,13.35
2023-05-02T22:21:48.720Z,13.18
2023-05-02T22:26:51.172Z,13.77
2023-05-02T22:31:53.321Z,13.70
2023-05-02T22:36:55.372Z,16.83
2023-05-02T22:41:59.957Z,12.68
2023-05-02T22:47:02.288Z,10.52
2023-05-02T22:52:04.440Z,15.23
2023-05-02T22:57:06.582Z,11.85
2023-05-02T23:02:11.130Z,11.70
2023-05-02T23:07:13.267Z,13.00
2023-05-02T23:12:15.392Z,11.20
2023-05-02T23:17:17.405Z,12.13
2023-05-02T23:22:19.671Z,14.73
2023-05-02T23:27:21.693Z,13.80
2023-05-02T23:32:23.921Z,11.13
2023-05-02T23:37:26.895Z,9.95
2023-05-02T23:42:32.508Z,13.05
2023-05-02T23:47:34.498Z,12.68
2023-05-02T23:52:36.523Z,12.57
2023-05-02T23:57:38.470Z,11.07
